Time;durP1;ratioP1;P1;durP2;ratioP2;P2;SDS_P1;SDS_P2;PMS_P1;PMS_P2;Temp;Humidity;BMP_temperature;BMP_pressure;BME280_temperature;BME280_humidity;BME280_pressure;Samples;Min_cycle;Max_cycle;Signal;HPM_P1;HPM_P2
2021/04/01 00:02:26;;;;;;;31.03;12.13;;;15.60;99.90;;;;;;5064041;28;20247;-81
2021/04/01 00:04:53;;;;;;;37.00;14.37;;;15.60;99.90;;;;;;5062109;28;20220;-78
2021/04/01 00:07:19;;;;;;;32.07;13.53;;;15.50;99.90;;;;;;5062845;28;20676;-77
2021/04/01 00:09:47;;;;;;;33.20;13.40;;;15.40;99.90;;;;;;5065816;28;20219;-79
2021/04/01 00:12:13;;;;;;;34.37;14.10;;;15.50;99.90;;;;;;5059329;28;20567;-77
2021/04/01 00:14:42;;;;;;;44.13;14.13;;;15.60;99.90;;;;;;5064940;28;20216;-78
2021/04/01 00:17:09;;;;;;;37.83;13.77;;;15.50;99.90;;;;;;5064264;28;20235;-79
2021/04/01 00:19:36;;;;;;;29.63;13.30;;;15.60;99.90;;;;;;5061627;28;20671;-80
2021/04/01 00:22:03;;;;;;;30.70;13.90;;;15.50;99.90;;;;;;5061279;28;20294;-78
2021/04/01 00:24:29;;;;;;;31.87;13.13;;;15.40;99.90;;;;;;5062989;28;20606;-77
2021/04/01 00:26:57;;;;;;;32.20;13.90;;;15.50;99.90;;;;;;5062923;28;20231;-82
2021/04/01 00:29:23;;;;;;;26.00;12.93;;;15.50;99.90;;;;;;5064309;28;20230;-79
2021/04/01 00:31:49;;;;;;;29.80;15.07;;;15.50;99.90;;;;;;5062710;28;20219;-79
2021/04/01 00:34:16;;;;;;;32.90;14.10;;;15.50;99.90;;;;;;5063206;28;20712;-77
2021/04/01 00:36:42;;;;;;;28.30;14.07;;;15.50;99.90;;;;;;5061831;28;20223;-81
2021/04/01 00:39:09;;;;;;;31.53;14.70;;;15.60;99.90;;;;;;5062245;28;20196;-77
2021/04/01 00:41:38;;;;;;;32.00;14.37;;;15.50;99.90;;;;;;5061208;28;20216;-77
2021/04/01 00:44:06;;;;;;;32.87;14.93;;;15.40;99.90;;;;;;5059862;28;20275;-77
2021/04/01 00:46:32;;;;;;;34.93;15.50;;;15.40;99.90;;;;;;5063515;28;20196;-77
2021/04/01 00:48:59;;;;;;;39.70;15.07;;;15.30;99.90;;;;;;5059524;28;20191;-78
2021/04/01 00:51:25;;;;;;;38.13;15.70;;;15.40;99.90;;;;;;5063954;28;20619;-78
2021/04/01 00:53:52;;;;;;;35.53;15.87;;;15.50;99.90;;;;;;5061829;28;20230;-79
2021/04/01 00:56:19;;;;;;;34.00;15.90;;;15.50;99.90;;;;;;5063784;28;20303;-77
2021/04/01 00:58:46;;;;;;;36.57;16.30;;;15.50;99.90;;;;;;5061028;28;20196;-78
2021/04/01 01:01:23;;;;;;;35.77;16.53;;;15.40;99.90;;;;;;5059028;28;20258;-82
2021/04/01 01:03:50;;;;;;;33.80;15.23;;;15.40;99.90;;;;;;5062059;28;20230;-77
2021/04/01 01:06:16;;;;;;;33.67;15.87;;;15.30;99.90;;;;;;5061968;28;20257;-77
2021/04/01 01:08:43;;;;;;;32.37;14.93;;;15.20;99.90;;;;;;5061051;28;20231;-78
2021/04/01 01:11:10;;;;;;;36.30;15.63;;;15.20;99.90;;;;;;5060749;28;20279;-80
2021/04/01 01:13:36;;;;;;;36.37;15.27;;;15.10;99.90;;;;;;5061638;28;20956;-78
2021/04/01 01:16:03;;;;;;;34.50;15.10;;;15.10;99.90;;;;;;5061497;28;20235;-77
2021/04/01 01:18:30;;;;;;;34.27;15.97;;;15.10;99.90;;;;;;5062873;28;20235;-77
2021/04/01 01:20:57;;;;;;;37.17;14.90;;;15.10;99.90;;;;;;5060507;28;20199;-79
2021/04/01 01:23:26;;;;;;;34.63;15.20;;;15.10;99.90;;;;;;5063373;28;20265;-78
2021/04/01 01:25:53;;;;;;;31.83;14.50;;;15.10;99.90;;;;;;5061105;28;20199;-78
2021/04/01 01:28:20;;;;;;;33.80;14.63;;;15.10;99.90;;;;;;5061680;28;20283;-79
2021/04/01 01:30:47;;;;;;;34.23;14.53;;;15.20;99.90;;;;;;5059353;28;20287;-81
2021/04/01 01:33:18;;;;;;;33.10;15.37;;;15.20;99.90;;;;;;5061832;28;20196;-77
2021/04/01 01:35:46;;;;;;;32.83;15.43;;;15.10;99.90;;;;;;5059201;28;20188;-78
2021/04/01 01:38:13;;;;;;;33.50;14.63;;;15.00;99.90;;;;;;5062253;28;20192;-79
2021/04/01 01:40:40;;;;;;;35.90;15.23;;;15.00;99.90;;;;;;5062342;28;20627;-78
2021/04/01 01:43:10;;;;;;;33.23;13.90;;;14.90;99.90;;;;;;5061434;28;20243;-84
2021/04/01 01:45:37;;;;;;;27.20;13.87;;;15.10;99.90;;;;;;5064256;28;20203;-78
2021/04/01 01:48:05;;;;;;;32.10;14.47;;;15.20;99.90;;;;;;5066019;28;20207;-79
2021/04/01 01:50:33;;;;;;;36.67;14.83;;;15.20;99.90;;;;;;5059531;28;20271;-77
2021/04/01 01:53:00;;;;;;;30.30;13.87;;;15.10;99.90;;;;;;5062796;28;20222;-78
2021/04/01 01:55:29;;;;;;;36.20;14.63;;;15.00;99.90;;;;;;5054549;28;20645;-77
2021/04/01 01:57:55;;;;;;;32.40;15.33;;;14.90;99.90;;;;;;5052629;28;20279;-77
2021/04/01 02:00:25;;;;;;;38.60;15.73;;;14.80;99.90;;;;;;5052977;28;20739;-76
2021/04/01 02:02:52;;;;;;;35.03;15.80;;;14.80;99.90;;;;;;5052081;28;20231;-78
2021/04/01 02:05:20;;;;;;;36.90;15.80;;;14.70;99.90;;;;;;5052364;28;20642;-79
2021/04/01 02:07:47;;;;;;;33.90;15.87;;;14.80;99.90;;;;;;5053419;28;20231;-78
2021/04/01 02:10:15;;;;;;;30.00;15.20;;;14.90;99.90;;;;;;5068598;28;20199;-77
2021/04/01 02:12:42;;;;;;;35.00;14.57;;;15.00;99.90;;;;;;5071855;28;20203;-76
2021/04/01 02:15:13;;;;;;;38.43;15.13;;;15.10;99.90;;;;;;5072402;28;20207;-77
2021/04/01 02:17:41;;;;;;;39.40;14.30;;;15.10;99.90;;;;;;5072099;28;20192;-76
2021/04/01 02:20:09;;;;;;;34.77;14.70;;;15.10;99.90;;;;;;5072567;28;20207;-77
2021/04/01 02:22:35;;;;;;;30.00;14.60;;;15.00;99.90;;;;;;5071011;28;20249;-76
2021/04/01 02:25:02;;;;;;;35.50;15.13;;;14.90;99.90;;;;;;5071862;28;20192;-77
2021/04/01 02:27:29;;;;;;;36.37;15.57;;;14.80;99.90;;;;;;5071714;28;20545;-75
2021/04/01 02:29:55;;;;;;;37.93;15.10;;;14.80;99.90;;;;;;5071366;28;20616;-76
2021/04/01 02:32:22;;;;;;;32.50;15.23;;;14.80;99.90;;;;;;5072302;28;20223;-78
2021/04/01 02:34:49;;;;;;;38.50;16.20;;;14.80;99.90;;;;;;5071958;28;20188;-76
2021/04/01 02:37:16;;;;;;;33.97;16.03;;;14.80;99.90;;;;;;5070829;28;20196;-77
2021/04/01 02:39:43;;;;;;;37.40;16.13;;;14.80;99.90;;;;;;5070444;28;20188;-77
2021/04/01 02:42:10;;;;;;;39.37;16.33;;;14.80;99.90;;;;;;5070092;28;20255;-78
2021/04/01 02:44:37;;;;;;;39.27;15.50;;;14.70;99.90;;;;;;5059680;28;20197;-77
2021/04/01 02:47:04;;;;;;;39.87;16.37;;;14.50;99.90;;;;;;5057763;28;20265;-80
2021/04/01 02:49:30;;;;;;;35.40;15.63;;;14.60;99.90;;;;;;5055262;28;20294;-77
2021/04/01 02:51:57;;;;;;;38.10;16.10;;;14.60;99.90;;;;;;5055211;28;20270;-78
2021/04/01 02:54:24;;;;;;;37.43;16.70;;;14.50;99.90;;;;;;5055596;28;20204;-77
2021/04/01 02:56:50;;;;;;;35.60;16.27;;;14.50;99.90;;;;;;5055812;28;20204;-79
2021/04/01 02:59:16;;;;;;;38.50;16.33;;;14.50;99.90;;;;;;5055823;28;20274;-77
2021/04/01 03:01:43;;;;;;;35.30;16.00;;;14.50;99.90;;;;;;5054799;28;20673;-76
2021/04/01 03:04:10;;;;;;;34.53;15.53;;;14.50;99.90;;;;;;5055312;28;20196;-79
2021/04/01 03:06:37;;;;;;;36.70;16.27;;;14.50;99.90;;;;;;5055529;28;20291;-77
2021/04/01 03:09:05;;;;;;;44.30;16.07;;;14.50;99.90;;;;;;5054660;28;20219;-76
2021/04/01 03:11:31;;;;;;;34.00;14.60;;;14.40;99.90;;;;;;5054911;28;20282;-79
2021/04/01 03:13:58;;;;;;;31.43;14.97;;;14.40;99.90;;;;;;5055013;28;20220;-80
2021/04/01 03:16:24;;;;;;;31.67;14.20;;;14.50;99.90;;;;;;5055081;28;20208;-76
2021/04/01 03:18:51;;;;;;;32.50;14.80;;;14.50;99.90;;;;;;5055252;28;20200;-77
2021/04/01 03:21:17;;;;;;;32.20;13.80;;;14.50;99.90;;;;;;5054290;28;20638;-77
2021/04/01 03:23:44;;;;;;;31.10;14.47;;;14.40;99.90;;;;;;5054829;28;20658;-77
2021/04/01 03:26:11;;;;;;;37.13;15.70;;;14.40;99.90;;;;;;5054485;28;20601;-78
2021/04/01 03:28:37;;;;;;;34.57;15.80;;;14.40;99.90;;;;;;5054738;28;20212;-79
2021/04/01 03:31:04;;;;;;;41.87;16.67;;;14.40;99.90;;;;;;5054827;28;20555;-77
2021/04/01 03:33:31;;;;;;;36.80;15.87;;;14.40;99.90;;;;;;5054568;28;20196;-77
2021/04/01 03:35:58;;;;;;;37.77;16.20;;;14.40;99.90;;;;;;5054794;28;20279;-74
2021/04/01 03:38:25;;;;;;;40.10;17.13;;;14.40;99.90;;;;;;5054563;28;20249;-75
2021/04/01 03:40:52;;;;;;;33.10;17.17;;;14.40;99.90;;;;;;5054439;28;20188;-76
2021/04/01 03:43:21;;;;;;;31.17;15.73;;;14.40;99.90;;;;;;5053888;28;20255;-81
2021/04/01 03:45:47;;;;;;;37.87;16.87;;;14.40;99.90;;;;;;5037010;28;20196;-80
2021/04/01 03:48:14;;;;;;;36.57;16.77;;;14.40;99.90;;;;;;5054389;28;20231;-77
2021/04/01 03:50:40;;;;;;;39.30;16.93;;;14.40;99.90;;;;;;5054187;28;20657;-78
2021/04/01 03:53:07;;;;;;;36.70;17.67;;;14.40;99.90;;;;;;5054323;28;20202;-77
2021/04/01 03:55:38;;;;;;;39.50;17.80;;;14.30;99.90;;;;;;5054311;28;20212;-79
2021/04/01 03:58:21;;;;;;;39.37;17.77;;;14.30;99.90;;;;;;5053595;28;20656;-79
2021/04/01 04:00:54;;;;;;;39.67;18.17;;;14.30;99.90;;;;;;5043955;28;20208;-80
2021/04/01 04:03:32;;;;;;;41.10;18.37;;;14.40;99.90;;;;;;5054174;28;20265;-78
2021/04/01 04:06:06;;;;;;;42.33;17.60;;;14.40;99.90;;;;;;5054613;28;20679;-77
2021/04/01 04:08:45;;;;;;;42.40;17.17;;;14.50;99.90;;;;;;5057461;28;20200;-78
2021/04/01 04:11:23;;;;;;;37.83;18.30;;;14.60;99.90;;;;;;5069974;28;20648;-80
2021/04/01 04:13:53;;;;;;;45.67;19.10;;;14.60;99.90;;;;;;5063089;28;20219;-77
2021/04/01 04:16:20;;;;;;;40.37;18.03;;;14.70;99.90;;;;;;5053917;28;20230;-79
2021/04/01 04:18:47;;;;;;;41.67;18.30;;;14.70;99.90;;;;;;5053896;28;20192;-78
2021/04/01 04:21:15;;;;;;;38.43;18.07;;;14.70;99.90;;;;;;5053978;28;20311;-78
2021/04/01 04:23:44;;;;;;;43.60;17.93;;;14.70;99.90;;;;;;5053337;28;20223;-79
2021/04/01 04:26:11;;;;;;;45.73;18.00;;;14.60;99.90;;;;;;5053520;28;20238;-78
2021/04/01 04:28:38;;;;;;;38.93;16.90;;;14.50;99.90;;;;;;5053926;28;20232;-78
2021/04/01 04:31:05;;;;;;;40.93;16.43;;;14.40;99.90;;;;;;5053718;28;20192;-79
2021/04/01 04:33:33;;;;;;;40.37;17.20;;;14.40;99.90;;;;;;5053341;28;20295;-78
2021/04/01 04:36:00;;;;;;;39.93;17.43;;;14.30;99.90;;;;;;5053054;28;20227;-78
2021/04/01 04:38:27;;;;;;;41.10;17.97;;;14.30;99.90;;;;;;5053867;28;20235;-79
2021/04/01 04:40:56;;;;;;;39.07;17.93;;;14.30;99.90;;;;;;5051835;28;20650;-79
2021/04/01 04:43:22;;;;;;;45.07;17.87;;;14.30;99.90;;;;;;5052160;28;20692;-76
2021/04/01 04:45:49;;;;;;;39.73;17.53;;;14.20;99.90;;;;;;5053032;28;20222;-77
2021/04/01 04:48:15;;;;;;;45.03;17.13;;;14.10;99.90;;;;;;5052761;28;20323;-77
2021/04/01 04:50:42;;;;;;;36.40;16.87;;;13.90;99.90;;;;;;5052613;28;20287;-78
2021/04/01 04:53:09;;;;;;;38.93;15.77;;;13.70;99.90;;;;;;5053009;28;20230;-79
2021/04/01 04:55:36;;;;;;;35.37;15.07;;;13.50;99.90;;;;;;5053293;28;20235;-79
2021/04/01 04:58:09;;;;;;;38.53;15.17;;;13.50;99.90;;;;;;5052644;28;20234;-79
2021/04/01 05:00:52;;;;;;;36.47;15.50;;;13.50;99.90;;;;;;5053048;28;20204;-79
2021/04/01 05:06:04;;;;;;;44.03;15.90;;;13.50;99.90;;;;;;5053091;28;20235;-79
2021/04/01 05:08:31;;;;;;;32.87;15.83;;;13.50;99.90;;;;;;5052986;28;20208;-77
2021/04/01 05:10:57;;;;;;;31.57;15.83;;;13.40;99.90;;;;;;5052451;28;20204;-81
2021/04/01 05:13:23;;;;;;;39.40;16.43;;;13.40;99.90;;;;;;5051357;28;20286;-78
2021/04/01 05:15:50;;;;;;;34.93;14.67;;;13.30;99.90;;;;;;5052196;28;20590;-78
2021/04/01 05:18:23;;;;;;;34.50;15.30;;;13.40;99.90;;;;;;5051206;28;20190;-77
2021/04/01 05:20:51;;;;;;;34.87;15.50;;;13.50;99.90;;;;;;5051686;28;20642;-80
2021/04/01 05:23:26;;;;;;;36.10;16.53;;;13.50;99.90;;;;;;5051518;28;20643;-77
2021/04/01 05:26:02;;;;;;;38.50;16.73;;;13.50;99.90;;;;;;5052174;28;20511;-79
2021/04/01 05:28:32;;;;;;;29.40;15.27;;;13.60;99.90;;;;;;5052552;28;20203;-80
2021/04/01 05:30:59;;;;;;;38.40;16.33;;;13.40;99.90;;;;;;5052418;28;20283;-78
2021/04/01 05:33:32;;;;;;;43.47;15.97;;;13.30;99.90;;;;;;5049510;28;20209;-78
2021/04/01 05:35:58;;;;;;;37.70;16.97;;;13.30;99.90;;;;;;5051437;28;20206;-77
2021/04/01 05:38:26;;;;;;;38.30;16.13;;;13.20;99.90;;;;;;5051507;28;20192;-79
2021/04/01 05:40:52;;;;;;;35.47;16.07;;;13.20;99.90;;;;;;5051591;28;20220;-77
2021/04/01 05:43:21;;;;;;;41.47;16.37;;;13.20;99.90;;;;;;5051618;28;20222;-77
2021/04/01 05:45:51;;;;;;;36.63;17.63;;;13.20;99.90;;;;;;5039488;28;20189;-77
2021/04/01 05:48:28;;;;;;;38.10;17.27;;;13.30;99.90;;;;;;5052082;28;20214;-78
2021/04/01 05:59:35;;;;;;;36.37;14.97;;;13.50;99.90;;;;;;5052460;28;20227;-77
2021/04/01 06:02:21;;;;;;;38.87;15.93;;;13.60;99.90;;;;;;5035155;28;20579;-79
2021/04/01 06:04:52;;;;;;;40.10;16.27;;;13.80;99.90;;;;;;5052416;28;20208;-77
2021/04/01 06:07:26;;;;;;;35.67;16.60;;;13.90;99.90;;;;;;5052195;28;20198;-77
2021/04/01 06:09:57;;;;;;;33.93;16.30;;;14.10;99.90;;;;;;5046125;28;20537;-78
2021/04/01 06:12:30;;;;;;;41.33;16.50;;;14.10;99.90;;;;;;5051966;28;20624;-77
2021/04/01 06:15:00;;;;;;;36.53;17.60;;;14.20;99.90;;;;;;5051587;28;20713;-74
2021/04/01 06:17:28;;;;;;;37.53;16.47;;;14.40;99.90;;;;;;5051447;28;20207;-77
2021/04/01 06:19:58;;;;;;;41.07;16.87;;;14.40;99.90;;;;;;5052105;28;20204;-77
2021/04/01 06:22:25;;;;;;;43.73;17.60;;;14.50;99.90;;;;;;5051394;28;20223;-78
2021/04/01 06:24:52;;;;;;;36.97;18.17;;;14.60;99.90;;;;;;5055761;28;20341;-77
2021/04/01 06:27:26;;;;;;;39.13;18.73;;;14.80;99.90;;;;;;5056051;28;20226;-76
2021/04/01 06:30:13;;;;;;;37.97;18.07;;;14.70;99.90;;;;;;5055877;28;20199;-77
2021/04/01 06:32:42;;;;;;;41.67;17.67;;;14.60;99.90;;;;;;5049986;28;20295;-76
2021/04/01 06:35:13;;;;;;;40.63;17.23;;;14.10;99.90;;;;;;5054952;28;20192;-77
2021/04/01 06:38:02;;;;;;;38.43;17.63;;;14.00;99.90;;;;;;5051361;28;20204;-78
2021/04/01 06:40:36;;;;;;;42.43;20.07;;;14.10;99.90;;;;;;5054362;28;20653;-77
2021/04/01 06:43:09;;;;;;;44.07;19.97;;;14.20;99.90;;;;;;5054875;28;20664;-79
2021/04/01 06:45:37;;;;;;;44.63;20.40;;;14.30;99.90;;;;;;5052266;28;20189;-78
2021/04/01 06:48:06;;;;;;;53.43;21.93;;;14.70;99.90;;;;;;5053286;28;20208;-77
2021/04/01 06:50:34;;;;;;;46.00;21.33;;;15.00;99.90;;;;;;5055417;28;20204;-77
2021/04/01 06:53:04;;;;;;;44.27;22.07;;;15.30;99.90;;;;;;5054622;28;20224;-77
2021/04/01 06:55:34;;;;;;;43.00;21.90;;;15.50;99.90;;;;;;5047849;28;20197;-77
2021/04/01 06:58:13;;;;;;;44.33;22.93;;;15.80;99.90;;;;;;5054038;28;20314;-76
2021/04/01 07:00:51;;;;;;;45.20;23.07;;;16.10;99.90;;;;;;5050146;28;20263;-78
2021/04/01 07:03:22;;;;;;;53.20;24.37;;;16.40;99.90;;;;;;5053199;28;20575;-76
2021/04/01 07:05:54;;;;;;;49.87;25.40;;;16.60;99.90;;;;;;5054343;28;20566;-77
2021/04/01 07:08:40;;;;;;;56.73;26.37;;;16.90;99.90;;;;;;5053270;28;20231;-78
2021/04/01 07:11:08;;;;;;;57.33;25.97;;;17.00;99.90;;;;;;5046700;28;20188;-78
2021/04/01 07:13:43;;;;;;;55.43;26.03;;;16.90;99.90;;;;;;5053489;28;20223;-78
2021/04/01 07:16:21;;;;;;;55.00;26.30;;;17.10;99.90;;;;;;5053730;28;20271;-77
2021/04/01 07:19:03;;;;;;;47.87;26.33;;;17.20;99.90;;;;;;5054502;28;20254;-77
2021/04/01 07:36:03;;;;;;;58.93;28.40;;;18.20;99.90;;;;;;5051718;28;20239;-78
2021/04/01 07:46:54;;;;;;;64.07;30.67;;;18.40;99.90;;;;;;5055005;28;20544;-78
2021/04/01 07:49:24;;;;;;;62.40;29.53;;;18.60;99.90;;;;;;5054628;28;20196;-77
2021/04/01 07:52:03;;;;;;;70.70;31.23;;;18.60;99.90;;;;;;5055041;28;20196;-77
2021/04/01 07:54:54;;;;;;;68.97;31.23;;;18.50;99.90;;;;;;5054798;28;20238;-76
2021/04/01 07:57:48;;;;;;;64.00;30.47;;;18.60;99.90;;;;;;5055307;28;20589;-79
2021/04/01 08:00:17;;;;;;;64.80;30.47;;;18.80;99.90;;;;;;5054507;28;20211;-79
2021/04/01 08:02:52;;;;;;;67.53;31.50;;;19.10;99.90;;;;;;5054643;28;20293;-77
2021/04/01 08:05:28;;;;;;;64.43;29.93;;;19.30;99.90;;;;;;5054707;28;20274;-78
2021/04/01 08:07:57;;;;;;;67.13;31.63;;;19.30;99.90;;;;;;5054453;28;20199;-77
2021/04/01 08:10:26;;;;;;;73.27;32.70;;;19.40;99.90;;;;;;5054961;28;20626;-76
2021/04/01 08:13:01;;;;;;;73.40;31.10;;;19.40;99.90;;;;;;5054533;28;20192;-78
2021/04/01 08:15:34;;;;;;;73.83;32.60;;;19.50;99.90;;;;;;5054418;28;20192;-79
2021/04/01 08:18:10;;;;;;;68.77;31.87;;;19.80;99.90;;;;;;5054623;28;20192;-77
2021/04/01 08:20:41;;;;;;;71.23;30.93;;;20.10;99.90;;;;;;5054377;28;20195;-77
2021/04/01 08:23:14;;;;;;;72.97;33.00;;;19.70;99.90;;;;;;5054155;28;20220;-79
2021/04/01 08:25:45;;;;;;;69.23;30.73;;;19.40;99.90;;;;;;5054655;28;20196;-77
2021/04/01 08:28:26;;;;;;;71.73;33.00;;;19.50;99.90;;;;;;5054378;28;20246;-79
2021/04/01 08:33:56;;;;;;;64.50;31.40;;;19.00;99.90;;;;;;5029423;28;20301;-77
2021/04/01 08:36:27;;;;;;;67.10;31.03;;;19.20;99.90;;;;;;5053995;28;20192;-78
2021/04/01 08:38:54;;;;;;;60.47;30.27;;;18.70;99.90;;;;;;5053621;28;20212;-78
2021/04/01 08:41:43;;;;;;;62.80;30.37;;;18.70;99.90;;;;;;5053554;28;20195;-78
2021/04/01 08:44:23;;;;;;;68.30;31.07;;;19.00;99.90;;;;;;5053716;28;20205;-78
2021/04/01 08:47:11;;;;;;;65.10;30.37;;;19.00;99.90;;;;;;5052699;28;20285;-77
2021/04/01 08:49:44;;;;;;;66.07;29.60;;;19.10;99.90;;;;;;5045444;28;20216;-76
2021/04/01 08:52:48;;;;;;;72.17;31.37;;;18.80;99.90;;;;;;5050896;28;20303;-78
2021/04/01 08:55:16;;;;;;;66.47;31.27;;;18.80;99.90;;;;;;5028283;28;20250;-80
2021/04/01 08:58:00;;;;;;;65.43;29.73;;;18.50;99.90;;;;;;5053584;28;20200;-79
2021/04/01 09:00:29;;;;;;;58.63;28.83;;;18.80;99.90;;;;;;5053402;28;20223;-78
2021/04/01 09:02:56;;;;;;;63.93;28.77;;;18.80;99.90;;;;;;5052999;28;20211;-80
2021/04/01 09:05:24;;;;;;;69.43;28.87;;;19.10;99.90;;;;;;5052851;28;20643;-77
2021/04/01 09:07:54;;;;;;;65.83;30.67;;;19.20;99.90;;;;;;5052426;28;20212;-79
2021/04/01 09:10:22;;;;;;;65.83;28.30;;;19.40;99.90;;;;;;5047147;28;20637;-77
2021/04/01 09:12:53;;;;;;;65.77;30.33;;;19.20;99.90;;;;;;5051818;28;20242;-77
2021/04/01 09:15:28;;;;;;;65.00;29.70;;;19.60;99.90;;;;;;5052665;28;20196;-77
2021/04/01 09:17:55;;;;;;;61.90;29.30;;;20.40;99.90;;;;;;5055930;28;20184;-78
2021/04/01 09:20:25;;;;;;;70.40;30.40;;;21.50;99.90;;;;;;5056944;28;20184;-76
2021/04/01 09:22:53;;;;;;;67.87;31.27;;;21.80;99.90;;;;;;5058820;28;20338;-78
2021/04/01 09:25:21;;;;;;;64.90;29.20;;;21.80;99.90;;;;;;5059592;28;20649;-77
2021/04/01 09:27:50;;;;;;;58.77;28.57;;;22.10;99.90;;;;;;5061062;28;20196;-78
2021/04/01 09:30:17;;;;;;;61.50;28.77;;;22.00;99.90;;;;;;5057523;28;20211;-78
2021/04/01 09:32:47;;;;;;;63.23;29.67;;;22.20;99.90;;;;;;5057472;28;20620;-78
2021/04/01 09:35:15;;;;;;;57.53;28.13;;;21.70;99.90;;;;;;5059955;28;20196;-78
2021/04/01 09:37:53;;;;;;;58.50;27.80;;;21.50;99.90;;;;;;5061406;28;20200;-77
2021/04/01 09:40:27;;;;;;;57.60;27.27;;;21.90;99.90;;;;;;5058167;28;20195;-77
2021/04/01 09:42:53;;;;;;;55.15;27.88;;;22.50;99.90;;;;;;5074005;28;20243;-78
2021/04/01 09:45:29;;;;;;;58.72;27.80;;;23.10;99.90;;;;;;5066496;28;20223;-76
2021/04/01 09:48:00;;;;;;;69.22;27.63;;;23.10;99.90;;;;;;5058965;28;20191;-78
2021/04/01 09:50:30;;;;;;;55.40;28.80;;;23.70;99.90;;;;;;5059848;28;20231;-78
2021/04/01 09:52:59;;;;;;;56.30;29.23;;;24.30;99.90;;;;;;5057093;28;20280;-76
2021/04/01 09:55:26;;;;;;;61.33;29.00;;;24.20;99.90;;;;;;5058203;28;20287;-78
2021/04/01 09:57:54;;;;;;;66.45;27.77;;;23.60;99.90;;;;;;5062181;28;20479;-77
2021/04/01 10:00:29;;;;;;;67.28;28.80;;;23.60;99.90;;;;;;5067313;28;20194;-76
2021/04/01 10:03:05;;;;;;;61.20;27.70;;;23.30;99.90;;;;;;5067950;28;20245;-77
2021/04/01 10:05:40;;;;;;;57.50;29.23;;;23.40;99.90;;;;;;5057491;28;20325;-77
2021/04/01 10:08:10;;;;;;;54.15;26.42;;;24.10;99.90;;;;;;5057045;28;20196;-76
2021/04/01 10:10:42;;;;;;;59.65;27.55;;;24.10;99.90;;;;;;5073315;28;20200;-77
2021/04/01 10:13:20;;;;;;;54.17;27.88;;;24.70;99.90;;;;;;5059373;28;20184;-76
2021/04/01 10:15:47;;;;;;;58.47;28.05;;;25.30;99.90;;;;;;5057562;28;20287;-76
2021/04/01 10:18:17;;;;;;;61.30;28.40;;;25.50;99.90;;;;;;5056068;28;20264;-76
2021/04/01 10:20:49;;;;;;;62.28;27.83;;;25.30;99.90;;;;;;5056798;28;20223;-78
2021/04/01 10:23:18;;;;;;;56.63;27.83;;;25.50;99.90;;;;;;5059199;28;20212;-78
2021/04/01 10:25:50;;;;;;;49.97;27.20;;;25.10;99.90;;;;;;5050977;28;20223;-76
2021/04/01 10:28:28;;;;;;;53.08;26.83;;;25.00;99.90;;;;;;5059642;28;20193;-76
2021/04/01 10:30:56;;;;;;;50.70;25.48;;;25.30;99.90;;;;;;5058481;28;20226;-78
2021/04/01 10:33:33;;;;;;;56.00;25.58;;;25.80;99.90;;;;;;5064648;28;20208;-77
2021/04/01 10:36:03;;;;;;;48.45;23.92;;;25.70;99.90;;;;;;5054477;28;20204;-76
2021/04/01 10:38:30;;;;;;;51.95;25.15;;;27.30;99.90;;;;;;5058528;28;20218;-76
2021/04/01 10:41:08;;;;;;;53.53;23.73;;;27.40;99.90;;;;;;5058792;28;20285;-76
2021/04/01 10:43:39;;;;;;;44.17;20.15;;;27.10;99.90;;;;;;5059601;28;20232;-76
2021/04/01 10:46:06;;;;;;;49.15;20.45;;;26.20;99.90;;;;;;5053720;28;20292;-76
2021/04/01 10:48:36;;;;;;;48.83;19.45;;;26.00;99.90;;;;;;5061331;28;20278;-75
2021/04/01 10:51:04;;;;;;;41.30;18.58;;;25.80;99.90;;;;;;5055657;28;20200;-76
2021/04/01 10:53:32;;;;;;;40.53;19.25;;;26.30;99.90;;;;;;5058597;28;20350;-77
2021/04/01 10:56:03;;;;;;;39.05;18.95;;;26.70;99.90;;;;;;5064975;28;20188;-76
2021/04/01 10:58:30;;;;;;;40.38;18.20;;;26.70;99.90;;;;;;5062195;28;20191;-78
2021/04/01 11:00:59;;;;;;;42.70;19.73;;;27.00;99.90;;;;;;5064191;28;20599;-77
2021/04/01 11:03:28;;;;;;;41.22;18.75;;;27.10;99.90;;;;;;5063208;28;20247;-76
2021/04/01 11:05:56;;;;;;;36.38;17.60;;;27.00;99.90;;;;;;5062722;28;20613;-76
2021/04/01 11:08:25;;;;;;;38.55;17.60;;;26.60;99.90;;;;;;5058326;28;20224;-76
2021/04/01 11:11:00;;;;;;;33.75;18.17;;;26.30;99.90;;;;;;5056671;28;20176;-77
2021/04/01 11:13:33;;;;;;;33.95;16.85;;;26.30;99.90;;;;;;5056129;28;20582;-78
2021/04/01 11:16:03;;;;;;;35.67;17.08;;;25.80;99.90;;;;;;5063045;28;20273;-77
2021/04/01 11:18:30;;;;;;;41.67;16.85;;;25.90;99.90;;;;;;5052420;28;20533;-77
2021/04/01 11:20:59;;;;;;;41.75;16.60;;;26.00;99.90;;;;;;5053316;28;20222;-76
2021/04/01 11:23:28;;;;;;;37.22;16.85;;;26.20;99.90;;;;;;5052640;28;20300;-77
2021/04/01 11:25:56;;;;;;;37.67;16.67;;;25.80;99.90;;;;;;5053052;28;20197;-76
2021/04/01 11:28:34;;;;;;;36.28;16.33;;;24.90;99.90;;;;;;5053016;28;20274;-78
2021/04/01 11:31:00;;;;;;;35.22;17.65;;;24.90;99.90;;;;;;5058523;28;20192;-78
2021/04/01 11:33:28;;;;;;;43.55;20.30;;;24.50;99.90;;;;;;5053054;28;20287;-76
2021/04/01 11:36:07;;;;;;;43.72;21.38;;;24.10;99.90;;;;;;5053418;28;20184;-76
2021/04/01 11:38:42;;;;;;;45.08;22.00;;;24.00;99.90;;;;;;5052637;28;20192;-76
2021/04/01 11:41:11;;;;;;;45.28;22.30;;;24.10;99.90;;;;;;5052950;28;20625;-76
2021/04/01 11:43:39;;;;;;;44.80;22.15;;;24.30;99.90;;;;;;5052965;28;20269;-77
2021/04/01 11:46:14;;;;;;;49.88;22.95;;;24.50;99.90;;;;;;5048932;28;20222;-76
2021/04/01 11:48:42;;;;;;;44.50;20.92;;;24.60;99.90;;;;;;5053279;28;20266;-78
2021/04/01 11:51:14;;;;;;;46.67;23.45;;;24.50;99.90;;;;;;5052814;28;20647;-77
2021/04/01 11:53:41;;;;;;;50.83;25.48;;;24.00;99.90;;;;;;5055318;28;20195;-76
2021/04/01 11:56:07;;;;;;;52.67;25.50;;;24.00;99.90;;;;;;5054596;28;20707;-76
2021/04/01 11:58:34;;;;;;;54.20;26.98;;;24.50;99.90;;;;;;5054922;28;20220;-78
2021/04/01 12:01:09;;;;;;;56.35;27.95;;;24.80;99.90;;;;;;5053727;28;20220;-76
2021/04/01 12:06:21;;;;;;;61.03;30.13;;;24.80;99.90;;;;;;5052553;28;20285;-78
2021/04/01 12:08:47;;;;;;;64.03;33.25;;;24.70;99.90;;;;;;5053414;28;20226;-76
2021/04/01 12:11:14;;;;;;;67.63;32.92;;;24.30;99.90;;;;;;5053930;28;20196;-77
2021/04/01 12:13:40;;;;;;;65.10;32.45;;;24.40;99.90;;;;;;5053660;28;20599;-76
2021/04/01 12:16:17;;;;;;;63.65;32.50;;;23.80;99.90;;;;;;5054110;28;20215;-77
2021/04/01 12:18:45;;;;;;;66.63;32.50;;;23.70;99.90;;;;;;5052976;28;20295;-77
2021/04/01 12:21:11;;;;;;;69.38;33.85;;;23.70;99.90;;;;;;5051655;28;20253;-78
2021/04/01 12:23:43;;;;;;;70.40;33.53;;;23.30;99.90;;;;;;5052635;28;20250;-77
2021/04/01 12:26:10;;;;;;;71.57;34.45;;;23.40;99.90;;;;;;5050601;28;20239;-79
2021/04/01 12:28:37;;;;;;;73.07;36.33;;;23.40;99.90;;;;;;5053273;28;20235;-77
2021/04/01 12:31:10;;;;;;;69.15;35.05;;;23.50;99.90;;;;;;5053091;28;20224;-75
2021/04/01 12:33:47;;;;;;;72.72;37.53;;;23.00;99.90;;;;;;5053276;28;20207;-78
2021/04/01 12:36:14;;;;;;;72.63;37.45;;;22.70;99.90;;;;;;5053263;28;20222;-76
2021/04/01 12:38:44;;;;;;;70.85;37.25;;;22.80;99.90;;;;;;5052741;28;20211;-77
2021/04/01 12:41:22;;;;;;;79.70;37.97;;;22.70;99.90;;;;;;5051931;28;20611;-76
2021/04/01 12:43:49;;;;;;;68.70;36.28;;;22.90;99.90;;;;;;5045897;28;20204;-77
2021/04/01 12:46:16;;;;;;;78.20;38.10;;;22.70;99.90;;;;;;5052266;28;20632;-77
2021/04/01 12:48:44;;;;;;;78.07;35.40;;;22.60;99.90;;;;;;5047893;28;20215;-77
2021/04/01 12:51:13;;;;;;;77.88;37.65;;;22.60;99.90;;;;;;5052955;28;20287;-79
2021/04/01 12:53:39;;;;;;;76.65;37.38;;;22.60;99.90;;;;;;5051963;28;20192;-75
2021/04/01 12:56:12;;;;;;;72.40;37.92;;;22.40;99.90;;;;;;5051479;28;20199;-75
2021/04/01 12:58:41;;;;;;;74.90;38.80;;;22.30;99.90;;;;;;5051854;28;20288;-77
2021/04/01 13:01:12;;;;;;;73.43;38.13;;;22.00;99.90;;;;;;5051945;28;20223;-77
2021/04/01 13:03:38;;;;;;;77.57;39.45;;;21.90;99.90;;;;;;5052684;28;20212;-77
2021/04/01 13:06:12;;;;;;;77.03;38.63;;;21.50;99.90;;;;;;5052093;28;20238;-78
2021/04/01 13:11:23;;;;;;;75.13;38.55;;;21.50;99.90;;;;;;5048880;28;20622;-78
2021/04/01 13:13:49;;;;;;;76.40;36.30;;;21.20;99.90;;;;;;5052046;28;20219;-77
2021/04/01 13:16:16;;;;;;;71.33;37.27;;;21.20;99.90;;;;;;5052396;28;20192;-77
2021/04/01 13:18:42;;;;;;;74.70;37.40;;;21.10;99.90;;;;;;5051697;28;20222;-77
2021/04/01 13:21:33;;;;;;;75.40;38.80;;;21.10;99.90;;;;;;5052439;28;20643;-77
2021/04/01 13:24:08;;;;;;;72.03;38.93;;;21.00;99.90;;;;;;5051855;28;20235;-77
2021/04/01 13:26:37;;;;;;;71.83;39.30;;;21.10;99.90;;;;;;5051230;28;20192;-77